createdAt,value
2022-12-27T00:00:06.785Z,10.90
2022-12-27T00:02:37.312Z,15.65
2022-12-27T00:05:05.501Z,16.20
2022-12-27T00:07:32.953Z,19.48
2022-12-27T00:10:01.289Z,16.30
2022-12-27T00:12:29.469Z,15.02
2022-12-27T00:14:56.770Z,16.08
2022-12-27T00:17:25.515Z,12.20
2022-12-27T00:19:53.000Z,14.50
2022-12-27T00:22:20.549Z,19.38
2022-12-27T00:24:48.091Z,12.15
2022-12-27T00:27:15.592Z,13.40
2022-12-27T00:29:43.012Z,12.75
2022-12-27T00:32:10.427Z,18.90
2022-12-27T00:34:37.941Z,17.98
2022-12-27T00:37:05.401Z,12.98
2022-12-27T00:39:32.856Z,12.85
2022-12-27T00:42:00.328Z,13.52
2022-12-27T00:44:28.222Z,12.45
2022-12-27T00:46:55.688Z,14.50
2022-12-27T00:49:23.189Z,13.05
2022-12-27T00:51:50.779Z,17.38
2022-12-27T00:54:18.228Z,17.27
2022-12-27T00:56:45.633Z,18.70
2022-12-27T00:59:13.121Z,18.05
2022-12-27T01:01:41.100Z,14.45
2022-12-27T01:04:08.725Z,13.55
2022-12-27T01:06:36.202Z,7.97
2022-12-27T01:09:04.181Z,15.90
2022-12-27T01:11:32.007Z,14.57
2022-12-27T01:14:00.702Z,11.25
2022-12-27T01:16:29.191Z,13.73
2022-12-27T01:18:56.791Z,14.13
2022-12-27T01:21:25.424Z,16.45
2022-12-27T01:23:52.833Z,10.10
2022-12-27T01:26:21.569Z,11.65
2022-12-27T01:28:49.191Z,12.63
2022-12-27T01:31:20.107Z,12.25
2022-12-27T01:33:47.850Z,13.68
2022-12-27T01:36:19.417Z,13.57
2022-12-27T01:38:48.235Z,13.50
2022-12-27T01:41:35.555Z,12.23
2022-12-27T01:44:37.859Z,15.07
2022-12-27T01:47:32.765Z,18.90
2022-12-27T01:50:14.706Z,10.77
2022-12-27T01:53:08.579Z,14.40
2022-12-27T01:55:57.188Z,17.33
2022-12-27T01:58:43.341Z,15.38
2022-12-27T02:01:21.856Z,13.13
2022-12-27T02:03:54.843Z,21.95
2022-12-27T02:06:23.103Z,20.05
2022-12-27T02:08:59.474Z,19.15
2022-12-27T02:11:51.656Z,26.08
2022-12-27T02:14:29.593Z,26.08
2022-12-27T02:16:58.744Z,27.05
2022-12-27T02:19:42.464Z,24.65
2022-12-27T02:22:29.098Z,26.38
2022-12-27T02:25:31.899Z,33.28
2022-12-27T02:28:43.336Z,25.45
2022-12-27T02:31:14.277Z,37.28
2022-12-27T02:36:40.644Z,33.35
2022-12-27T02:39:08.080Z,26.88
2022-12-27T02:41:54.570Z,23.27
2022-12-27T02:44:40.411Z,31.85
2022-12-27T02:47:38.532Z,24.92
2022-12-27T02:50:25.457Z,29.17
2022-12-27T02:53:17.000Z,24.77
2022-12-27T02:56:24.921Z,29.80
2022-12-27T02:59:13.512Z,32.45
2022-12-27T03:02:18.681Z,29.90
2022-12-27T03:05:30.154Z,24.73
2022-12-27T03:08:11.678Z,25.75
2022-12-27T03:11:11.353Z,29.10
2022-12-27T03:14:34.941Z,21.58
2022-12-27T03:17:06.000Z,22.25
2022-12-27T03:20:02.500Z,29.17
2022-12-27T03:22:49.009Z,25.45
2022-12-27T03:25:28.403Z,28.83
2022-12-27T03:28:29.231Z,25.85
2022-12-27T03:31:24.752Z,19.37
2022-12-27T03:33:59.841Z,20.83
2022-12-27T03:37:05.625Z,17.63
2022-12-27T03:39:34.740Z,15.98
2022-12-27T03:42:23.400Z,19.52
2022-12-27T03:44:52.461Z,24.55
2022-12-27T03:47:50.643Z,20.60
2022-12-27T03:50:28.997Z,20.40
2022-12-27T03:53:08.285Z,17.02
2022-12-27T03:55:36.605Z,19.60
2022-12-27T03:58:03.956Z,24.30
2022-12-27T04:00:31.528Z,21.85
2022-12-27T04:02:59.040Z,18.08
2022-12-27T04:05:26.495Z,14.32
2022-12-27T04:08:12.633Z,16.83
2022-12-27T04:10:58.707Z,14.48
2022-12-27T04:13:45.021Z,14.23
2022-12-27T04:16:30.947Z,11.48
2022-12-27T04:19:16.987Z,10.40
2022-12-27T04:22:02.734Z,16.75
2022-12-27T04:24:48.925Z,12.15
2022-12-27T04:27:34.829Z,14.52
2022-12-27T04:30:20.830Z,15.35
2022-12-27T04:33:06.922Z,10.80
2022-12-27T04:35:34.376Z,14.68
2022-12-27T04:38:02.000Z,9.80
2022-12-27T04:40:47.992Z,15.20
2022-12-27T04:43:34.993Z,15.52
2022-12-27T04:46:21.228Z,15.05
2022-12-27T04:49:07.002Z,11.18
2022-12-27T04:51:53.021Z,12.55
2022-12-27T04:54:41.152Z,11.25
2022-12-27T04:57:08.554Z,10.55
2022-12-27T04:59:54.758Z,12.07
2022-12-27T05:02:22.619Z,15.43
2022-12-27T05:04:50.411Z,10.23
2022-12-27T05:07:36.186Z,10.15
2022-12-27T05:10:23.387Z,11.95
2022-12-27T05:13:10.437Z,10.00
2022-12-27T05:15:37.774Z,12.43
2022-12-27T05:18:05.249Z,12.75
2022-12-27T05:20:36.281Z,10.80
2022-12-27T05:23:22.481Z,10.23
2022-12-27T05:25:50.002Z,11.10
2022-12-27T05:28:17.576Z,12.40
2022-12-27T05:30:45.070Z,13.98
2022-12-27T05:33:12.824Z,13.02
2022-12-27T05:35:40.437Z,12.18
2022-12-27T05:38:07.879Z,10.63
2022-12-27T05:40:35.811Z,12.65
2022-12-27T05:43:03.638Z,10.50
2022-12-27T05:45:31.079Z,11.73
2022-12-27T05:47:59.075Z,7.68
2022-12-27T05:50:26.595Z,11.05
2022-12-27T05:52:54.090Z,8.93
2022-12-27T05:55:21.745Z,9.20
2022-12-27T05:57:49.315Z,9.05
2022-12-27T06:00:17.082Z,9.43
2022-12-27T06:02:45.053Z,6.93
2022-12-27T06:05:12.606Z,7.20
2022-12-27T06:07:42.500Z,9.57
2022-12-27T06:10:10.446Z,8.20
2022-12-27T06:12:38.306Z,10.10
2022-12-27T06:15:06.400Z,10.88
2022-12-27T06:17:33.982Z,8.73
2022-12-27T06:20:01.585Z,8.63
2022-12-27T06:22:29.074Z,7.22
2022-12-27T06:24:57.234Z,8.32
2022-12-27T06:27:24.796Z,7.53
2022-12-27T06:29:52.288Z,9.13
2022-12-27T06:32:19.792Z,8.90
2022-12-27T06:34:47.320Z,10.38
2022-12-27T06:37:14.916Z,8.20
2022-12-27T06:39:42.334Z,8.65
2022-12-27T06:42:09.843Z,7.85
2022-12-27T06:44:37.284Z,7.00
2022-12-27T06:47:04.775Z,5.80
2022-12-27T06:49:32.591Z,8.05
2022-12-27T06:52:00.060Z,6.60
2022-12-27T06:54:27.612Z,7.03
2022-12-27T06:56:56.370Z,5.72
2022-12-27T07:01:53.803Z,9.52
2022-12-27T07:04:21.408Z,9.75
2022-12-27T07:06:48.814Z,5.35
2022-12-27T07:09:16.881Z,8.18
2022-12-27T07:11:45.666Z,4.07
2022-12-27T07:14:13.505Z,7.07
2022-12-27T07:16:43.283Z,5.10
2022-12-27T07:19:10.960Z,7.53
2022-12-27T07:21:38.371Z,6.97
2022-12-27T07:24:06.330Z,6.88
2022-12-27T07:26:33.816Z,5.03
2022-12-27T07:29:01.463Z,7.82
2022-12-27T07:31:31.144Z,6.50
2022-12-27T07:33:59.069Z,6.30
2022-12-27T07:36:29.665Z,8.80
2022-12-27T07:38:57.014Z,9.23
2022-12-27T07:41:26.006Z,14.75
2022-12-27T07:43:53.582Z,16.52
2022-12-27T07:46:22.916Z,15.98
2022-12-27T07:48:50.942Z,14.95
2022-12-27T07:51:18.355Z,10.30
2022-12-27T07:53:48.109Z,16.92
2022-12-27T07:56:23.462Z,12.80
2022-12-27T07:58:53.381Z,15.90
2022-12-27T08:01:24.161Z,11.93
2022-12-27T08:03:51.624Z,12.85
2022-12-27T08:06:24.497Z,10.57
2022-12-27T08:08:52.257Z,10.57
2022-12-27T08:11:20.926Z,12.02
2022-12-27T08:13:49.140Z,8.05
2022-12-27T08:16:20.646Z,13.50
2022-12-27T08:18:48.459Z,8.93
2022-12-27T08:21:16.133Z,8.52
2022-12-27T08:23:43.612Z,8.05
2022-12-27T08:26:11.020Z,6.20
2022-12-27T08:28:38.506Z,7.43
2022-12-27T08:31:08.243Z,9.02
2022-12-27T08:33:37.181Z,8.45
2022-12-27T08:39:07.481Z,11.02
2022-12-27T08:41:35.611Z,10.63
2022-12-27T08:44:03.159Z,12.90
2022-12-27T08:46:30.821Z,16.42
2022-12-27T08:48:59.692Z,13.68
2022-12-27T08:51:36.021Z,5.65
2022-12-27T08:54:10.348Z,10.52
2022-12-27T08:56:37.911Z,10.38
2022-12-27T08:59:05.511Z,8.82
2022-12-27T09:01:33.495Z,9.07
2022-12-27T09:04:01.406Z,10.77
2022-12-27T09:06:29.770Z,11.02
2022-12-27T09:08:58.027Z,11.80
2022-12-27T09:11:30.267Z,9.82
2022-12-27T09:13:58.890Z,15.65
2022-12-27T09:16:29.417Z,12.68
2022-12-27T09:18:58.026Z,13.32
2022-12-27T09:21:27.528Z,16.10
2022-12-27T09:23:55.255Z,11.18
2022-12-27T09:26:24.676Z,12.45
2022-12-27T09:28:53.164Z,18.20
2022-12-27T09:31:21.808Z,15.27
2022-12-27T09:33:49.326Z,15.27
2022-12-27T09:36:21.425Z,11.55
2022-12-27T09:38:49.191Z,17.75
2022-12-27T09:42:43.763Z,9.85
2022-12-27T09:45:05.441Z,12.18
2022-12-27T09:47:53.757Z,10.13
2022-12-27T09:50:35.774Z,9.95
2022-12-27T09:53:25.024Z,8.32
2022-12-27T09:55:56.455Z,7.47
2022-12-27T09:58:55.634Z,11.32
2022-12-27T10:01:24.524Z,7.75
2022-12-27T10:03:54.297Z,9.77
2022-12-27T10:06:30.801Z,8.75
2022-12-27T10:09:32.571Z,10.30
2022-12-27T10:15:17.889Z,6.57
2022-12-27T10:18:20.126Z,10.73
2022-12-27T10:21:06.092Z,6.97
2022-12-27T10:23:35.109Z,8.45
2022-12-27T10:26:05.594Z,8.52
2022-12-27T10:28:43.125Z,7.07
2022-12-27T10:31:17.280Z,6.13
2022-12-27T10:33:47.376Z,7.95
2022-12-27T10:36:16.999Z,6.78
2022-12-27T10:38:47.171Z,7.95
2022-12-27T10:41:33.636Z,8.73
2022-12-27T10:44:01.245Z,6.47
2022-12-27T10:46:33.085Z,9.82
2022-12-27T10:49:22.075Z,9.77
2022-12-27T10:51:51.164Z,9.15
2022-12-27T10:54:24.313Z,13.80
2022-12-27T10:56:52.365Z,16.63
2022-12-27T10:59:22.733Z,14.20
2022-12-27T11:02:01.905Z,11.90
2022-12-27T11:04:30.761Z,11.77
2022-12-27T11:07:04.345Z,14.07
2022-12-27T11:09:32.692Z,12.10
2022-12-27T11:12:21.213Z,8.93
2022-12-27T11:14:58.757Z,10.52
2022-12-27T11:17:41.126Z,12.63
2022-12-27T11:20:12.252Z,10.82
2022-12-27T11:22:49.609Z,15.75
2022-12-27T11:25:17.202Z,15.00
2022-12-27T11:27:49.676Z,14.45
2022-12-27T11:30:28.851Z,12.70
2022-12-27T11:33:01.316Z,14.85
2022-12-27T11:35:28.903Z,15.57
2022-12-27T11:37:56.987Z,17.85
2022-12-27T11:40:26.072Z,12.05
2022-12-27T11:42:59.395Z,15.38
2022-12-27T11:45:39.926Z,20.23
2022-12-27T11:48:20.085Z,24.10
2022-12-27T11:51:06.265Z,20.50
2022-12-27T11:54:04.442Z,13.80
2022-12-27T11:56:34.954Z,14.93
2022-12-27T11:59:22.803Z,16.13
2022-12-27T12:02:08.561Z,22.35
2022-12-27T12:04:51.782Z,16.35
2022-12-27T12:07:28.158Z,16.40
2022-12-27T12:10:33.908Z,19.40
2022-12-27T12:13:14.204Z,17.00
2022-12-27T12:16:18.792Z,20.23
2022-12-27T12:19:11.000Z,19.73
2022-12-27T12:21:59.471Z,18.75
2022-12-27T12:24:43.717Z,24.92
2022-12-27T12:27:22.287Z,21.88
2022-12-27T12:30:43.871Z,20.25
2022-12-27T12:33:22.690Z,18.02
2022-12-27T12:36:09.082Z,20.92
2022-12-27T12:39:14.604Z,20.60
2022-12-27T12:41:50.746Z,21.27
2022-12-27T12:44:29.812Z,24.25
2022-12-27T12:47:08.547Z,23.10
2022-12-27T12:50:14.495Z,22.45
2022-12-27T12:53:00.328Z,24.08
2022-12-27T12:55:56.767Z,24.67
2022-12-27T12:58:32.874Z,21.33
2022-12-27T13:01:03.346Z,24.27
2022-12-27T13:03:39.308Z,18.73
2022-12-27T13:06:44.911Z,30.67
2022-12-27T13:09:15.416Z,29.15
2022-12-27T13:14:21.574Z,27.95
2022-12-27T13:16:58.792Z,25.45
2022-12-27T13:19:44.290Z,25.88
2022-12-27T13:22:14.714Z,22.27
2022-12-27T13:25:26.924Z,28.35
2022-12-27T13:27:59.772Z,32.65
2022-12-27T13:30:50.994Z,27.55
2022-12-27T13:33:33.612Z,22.73
2022-12-27T13:36:21.046Z,26.02
2022-12-27T13:39:28.213Z,23.52
2022-12-27T13:42:13.805Z,34.00
2022-12-27T13:44:59.377Z,35.92
2022-12-27T13:47:34.722Z,27.38
2022-12-27T13:50:37.702Z,25.73
2022-12-27T13:53:37.018Z,25.00
2022-12-27T13:56:52.823Z,30.98
2022-12-27T13:59:27.064Z,24.35
2022-12-27T14:01:54.472Z,25.75
2022-12-27T14:04:31.238Z,22.83
2022-12-27T14:07:21.695Z,20.65
2022-12-27T14:10:20.850Z,20.90
2022-12-27T14:12:55.039Z,28.35
2022-12-27T14:15:25.082Z,25.30
2022-12-27T14:18:12.890Z,27.58
2022-12-27T14:20:43.228Z,23.98
2022-12-27T14:23:17.284Z,22.95
2022-12-27T14:26:03.015Z,25.08
2022-12-27T14:29:15.281Z,25.52
2022-12-27T14:32:09.340Z,26.55
2022-12-27T14:34:39.841Z,25.13
2022-12-27T14:37:13.331Z,25.13
2022-12-27T14:40:08.629Z,29.95
2022-12-27T14:43:01.547Z,25.92
2022-12-27T14:46:06.282Z,22.95
2022-12-27T14:49:12.798Z,24.88
2022-12-27T14:52:01.079Z,23.50
2022-12-27T14:54:38.026Z,26.00
2022-12-27T14:57:27.495Z,25.17
2022-12-27T15:00:16.920Z,26.50
2022-12-27T15:03:15.391Z,28.40
2022-12-27T15:05:48.463Z,30.08
2022-12-27T15:08:16.527Z,31.67
2022-12-27T15:11:02.070Z,29.92
2022-12-27T15:14:11.651Z,38.13
2022-12-27T15:16:52.639Z,28.65
2022-12-27T15:19:29.845Z,27.83
2022-12-27T15:22:00.323Z,26.83
2022-12-27T15:24:50.113Z,28.35
2022-12-27T15:27:40.759Z,37.33
2022-12-27T15:30:10.803Z,30.33
2022-12-27T15:32:53.534Z,25.98
2022-12-27T15:35:50.067Z,23.02
2022-12-27T15:38:42.737Z,25.27
2022-12-27T15:41:22.798Z,24.25
2022-12-27T15:44:33.642Z,23.35
2022-12-27T15:47:22.928Z,25.40
2022-12-27T15:50:18.157Z,24.95
2022-12-27T15:52:53.255Z,29.65
2022-12-27T15:55:38.335Z,36.15
2022-12-27T15:58:13.577Z,41.28
2022-12-27T16:00:42.110Z,33.40
2022-12-27T16:03:33.847Z,34.70
2022-12-27T16:08:29.238Z,32.47
2022-12-27T16:10:57.414Z,32.10
2022-12-27T16:13:41.440Z,37.05
2022-12-27T16:16:12.330Z,36.75
2022-12-27T16:18:51.809Z,39.92
2022-12-27T16:21:26.959Z,58.83
2022-12-27T16:24:01.854Z,41.55
2022-12-27T16:26:33.401Z,41.10
2022-12-27T16:29:10.003Z,36.03
2022-12-27T16:31:45.157Z,33.13
2022-12-27T16:34:14.743Z,40.58
2022-12-27T16:36:46.942Z,39.75
2022-12-27T16:39:45.380Z,35.80
2022-12-27T16:42:14.214Z,45.05
2022-12-27T16:45:06.054Z,30.98
2022-12-27T16:50:41.336Z,38.75
2022-12-27T16:53:23.742Z,47.97
2022-12-27T16:56:07.168Z,33.20
2022-12-27T16:58:36.505Z,41.60
2022-12-27T17:01:05.945Z,36.22
2022-12-27T17:03:36.425Z,41.20
2022-12-27T17:06:32.003Z,38.13
2022-12-27T17:09:09.940Z,36.97
2022-12-27T17:12:03.700Z,31.90
2022-12-27T17:14:35.572Z,42.78
2022-12-27T17:17:04.257Z,35.72
2022-12-27T17:19:40.016Z,39.65
2022-12-27T17:22:08.048Z,31.38
2022-12-27T17:24:35.710Z,52.58
2022-12-27T17:27:12.553Z,35.97
2022-12-27T17:29:45.786Z,33.95
2022-12-27T17:32:35.201Z,36.72
2022-12-27T17:35:25.841Z,33.38
2022-12-27T17:38:09.198Z,36.17
2022-12-27T17:44:01.460Z,27.80
2022-12-27T17:46:38.993Z,31.23
2022-12-27T17:49:07.079Z,33.40
2022-12-27T17:51:34.719Z,39.45
2022-12-27T17:54:21.562Z,46.75
2022-12-27T17:57:16.116Z,40.42
2022-12-27T17:59:44.997Z,42.38
2022-12-27T18:02:42.071Z,44.22
2022-12-27T18:05:13.597Z,48.40
2022-12-27T18:10:24.530Z,32.78
2022-12-27T18:13:19.817Z,40.97
2022-12-27T18:15:47.810Z,29.98
2022-12-27T18:18:24.645Z,42.70
2022-12-27T18:20:54.900Z,36.55
2022-12-27T18:23:22.356Z,36.92
2022-12-27T18:26:01.649Z,40.83
2022-12-27T18:28:33.788Z,35.08
2022-12-27T18:31:13.857Z,40.50
2022-12-27T18:34:04.248Z,39.97
2022-12-27T18:36:52.228Z,36.13
2022-12-27T18:39:50.624Z,39.55
2022-12-27T18:42:30.549Z,41.08
2022-12-27T18:45:01.124Z,43.33
2022-12-27T18:47:28.711Z,45.22
2022-12-27T18:49:58.414Z,44.28
2022-12-27T18:52:31.314Z,38.65
2022-12-27T18:55:22.139Z,43.78
2022-12-27T18:57:49.624Z,47.22
2022-12-27T19:00:25.790Z,41.15
2022-12-27T19:02:54.326Z,40.95
2022-12-27T19:05:23.346Z,35.33
2022-12-27T19:07:59.524Z,45.50
2022-12-27T19:10:28.547Z,39.88
2022-12-27T19:12:56.044Z,47.90
2022-12-27T19:15:28.131Z,31.90
2022-12-27T19:17:59.139Z,41.78
2022-12-27T19:20:33.660Z,38.58
2022-12-27T19:23:05.812Z,45.20
2022-12-27T19:25:35.341Z,41.75
2022-12-27T19:28:23.117Z,41.88
2022-12-27T19:31:19.964Z,42.15
2022-12-27T19:33:55.851Z,40.45
2022-12-27T19:36:30.435Z,39.97
2022-12-27T19:38:58.615Z,37.83
2022-12-27T19:41:26.256Z,30.15
2022-12-27T19:43:53.991Z,36.03
2022-12-27T19:46:27.104Z,37.40
2022-12-27T19:51:45.328Z,44.20
2022-12-27T19:54:20.730Z,36.47
2022-12-27T19:56:48.455Z,40.42
2022-12-27T19:59:20.206Z,37.15
2022-12-27T20:01:47.906Z,34.33
2022-12-27T20:04:16.951Z,38.33
2022-12-27T20:06:46.304Z,39.40
2022-12-27T20:09:17.496Z,36.67
2022-12-27T20:11:44.935Z,35.40
2022-12-27T20:14:13.266Z,40.92
2022-12-27T20:16:41.049Z,38.83
2022-12-27T20:19:10.607Z,47.28
2022-12-27T20:21:39.333Z,45.65
2022-12-27T20:24:07.258Z,39.97
2022-12-27T20:26:35.081Z,43.55
2022-12-27T20:29:02.745Z,35.58
2022-12-27T20:31:31.297Z,46.35
2022-12-27T20:33:58.826Z,44.58
2022-12-27T20:36:26.196Z,39.03
2022-12-27T20:38:53.679Z,42.30
2022-12-27T20:41:21.443Z,41.97
2022-12-27T20:43:53.723Z,51.78
2022-12-27T20:46:21.411Z,43.72
2022-12-27T20:48:48.973Z,44.28
2022-12-27T20:51:18.063Z,48.47
2022-12-27T20:53:45.702Z,50.33
2022-12-27T20:56:16.815Z,50.05
2022-12-27T20:58:44.274Z,56.15
2022-12-27T21:01:13.844Z,43.75
2022-12-27T21:03:41.620Z,44.72
2022-12-27T21:06:12.830Z,50.67
2022-12-27T21:11:17.559Z,46.83
2022-12-27T21:13:45.496Z,41.75
2022-12-27T21:16:14.942Z,51.30
2022-12-27T21:18:42.491Z,41.67
2022-12-27T21:21:12.491Z,45.05
2022-12-27T21:23:40.866Z,43.08
2022-12-27T21:26:10.457Z,38.65
2022-12-27T21:28:37.941Z,46.13
2022-12-27T21:31:06.448Z,46.38
2022-12-27T21:33:36.041Z,39.00
2022-12-27T21:36:08.502Z,40.00
2022-12-27T21:38:36.070Z,41.05
2022-12-27T21:41:05.901Z,40.30
2022-12-27T21:43:33.530Z,42.13
2022-12-27T21:46:08.366Z,39.10
2022-12-27T21:48:37.867Z,43.42
2022-12-27T21:51:13.099Z,29.98
2022-12-27T21:53:40.589Z,32.78
2022-12-27T21:56:08.260Z,37.70
2022-12-27T21:58:37.757Z,31.35
2022-12-27T22:01:09.303Z,29.38
2022-12-27T22:03:38.231Z,35.63
2022-12-27T22:06:17.931Z,32.03
2022-12-27T22:08:46.905Z,32.65
2022-12-27T22:11:14.626Z,34.03
2022-12-27T22:13:42.740Z,36.08
2022-12-27T22:16:24.430Z,39.35
2022-12-27T22:18:52.149Z,33.45
2022-12-27T22:21:21.378Z,32.35
2022-12-27T22:23:50.254Z,38.30
2022-12-27T22:26:23.316Z,30.15
2022-12-27T22:28:50.876Z,34.22
2022-12-27T22:31:20.384Z,31.83
2022-12-27T22:33:48.519Z,29.38
2022-12-27T22:36:21.029Z,27.02
2022-12-27T22:38:50.365Z,28.23
2022-12-27T22:41:22.022Z,29.60
2022-12-27T22:43:51.590Z,28.55
2022-12-27T22:46:19.250Z,23.02
2022-12-27T22:48:51.666Z,23.38
2022-12-27T22:51:22.898Z,24.38
2022-12-27T22:53:50.913Z,20.23
2022-12-27T22:56:21.177Z,20.38
2022-12-27T22:58:48.867Z,19.98
2022-12-27T23:01:20.405Z,15.73
2022-12-27T23:03:48.260Z,17.00
2022-12-27T23:06:15.751Z,20.83
2022-12-27T23:08:44.825Z,12.65
2022-12-27T23:11:13.493Z,17.13
2022-12-27T23:13:41.082Z,15.52
2022-12-27T23:16:08.641Z,19.55
2022-12-27T23:18:36.822Z,19.00
2022-12-27T23:21:21.118Z,22.65
2022-12-27T23:23:51.997Z,8.73
2022-12-27T23:26:21.275Z,6.10
2022-12-27T23:28:49.076Z,6.05
2022-12-27T23:31:16.646Z,2.47
2022-12-27T23:33:44.137Z,3.97
2022-12-27T23:36:12.597Z,2.00
2022-12-27T23:38:43.085Z,2.40
2022-12-27T23:41:23.834Z,2.17
2022-12-27T23:43:55.463Z,2.38
2022-12-27T23:48:51.896Z,3.78
2022-12-27T23:51:19.467Z,2.75
2022-12-27T23:53:47.059Z,2.13
2022-12-27T23:56:18.422Z,2.30
2022-12-27T23:58:46.534Z,3.53
